createdAt,value
2022-12-08T00:00:06.967Z,10.98
2022-12-08T00:02:38.571Z,9.80
2022-12-08T00:05:24.200Z,10.93
2022-12-08T00:08:09.626Z,10.65
2022-12-08T00:10:51.567Z,12.85
2022-12-08T00:13:19.194Z,10.63
2022-12-08T00:15:45.634Z,10.60
2022-12-08T00:18:12.299Z,10.63
2022-12-08T00:20:39.100Z,9.50
2022-12-08T00:23:05.656Z,9.98
2022-12-08T00:25:34.938Z,11.98
2022-12-08T00:28:01.417Z,9.57
2022-12-08T00:30:28.045Z,9.23
2022-12-08T00:32:54.506Z,9.70
2022-12-08T00:35:21.160Z,10.18
2022-12-08T00:37:47.647Z,9.40
2022-12-08T00:40:14.239Z,11.57
2022-12-08T00:42:40.733Z,10.57
2022-12-08T00:45:07.421Z,10.57
2022-12-08T00:47:33.852Z,9.15
2022-12-08T00:50:00.475Z,8.80
2022-12-08T00:52:27.035Z,8.88
2022-12-08T00:54:53.625Z,8.60
2022-12-08T00:57:21.587Z,7.28
2022-12-08T00:59:48.065Z,6.63
2022-12-08T01:02:14.698Z,7.97
2022-12-08T01:04:41.813Z,7.00
2022-12-08T01:07:08.548Z,6.30
2022-12-08T01:09:35.071Z,6.20
2022-12-08T01:12:01.783Z,6.00
2022-12-08T01:14:28.292Z,5.97
2022-12-08T01:16:54.909Z,6.00
2022-12-08T01:19:21.462Z,6.30
2022-12-08T01:21:48.008Z,5.07
2022-12-08T01:24:15.963Z,5.50
2022-12-08T01:26:42.553Z,5.55
2022-12-08T01:29:09.743Z,5.50
2022-12-08T01:31:36.235Z,5.70
2022-12-08T01:34:02.864Z,6.65
2022-12-08T01:36:30.669Z,6.55
2022-12-08T01:38:58.053Z,5.13
2022-12-08T01:41:26.428Z,6.95
2022-12-08T01:44:01.144Z,4.20
2022-12-08T01:46:28.916Z,6.50
2022-12-08T01:49:00.364Z,4.72
2022-12-08T01:51:27.109Z,4.40
2022-12-08T01:53:53.688Z,4.05
2022-12-08T01:56:31.646Z,5.00
2022-12-08T01:58:58.483Z,4.28
2022-12-08T02:01:25.364Z,7.15
2022-12-08T02:03:54.539Z,3.95
2022-12-08T02:06:21.172Z,4.05
2022-12-08T02:08:47.856Z,4.15
2022-12-08T02:11:14.528Z,4.53
2022-12-08T02:13:42.440Z,3.95
2022-12-08T02:16:11.829Z,4.93
2022-12-08T02:19:22.416Z,4.65
2022-12-08T02:21:52.803Z,4.18
2022-12-08T02:24:25.160Z,4.90
2022-12-08T02:27:05.534Z,2.97
2022-12-08T02:29:40.941Z,5.07
2022-12-08T02:32:21.035Z,4.75
2022-12-08T02:34:53.183Z,5.25
2022-12-08T02:37:29.516Z,5.35
2022-12-08T02:39:55.956Z,3.88
2022-12-08T02:42:27.794Z,4.55
2022-12-08T02:44:54.294Z,4.30
2022-12-08T02:47:22.272Z,3.00
2022-12-08T02:49:48.842Z,4.50
2022-12-08T02:52:15.236Z,5.28
2022-12-08T02:54:44.880Z,3.83
2022-12-08T02:57:20.171Z,4.10
2022-12-08T02:59:55.634Z,4.38
2022-12-08T03:02:40.832Z,5.72
2022-12-08T03:05:19.672Z,5.28
2022-12-08T03:07:54.063Z,4.93
2022-12-08T03:10:39.219Z,6.00
2022-12-08T03:13:16.199Z,4.53
2022-12-08T03:15:43.767Z,5.60
2022-12-08T03:18:12.984Z,5.50
2022-12-08T03:20:40.582Z,5.13
2022-12-08T03:23:09.428Z,5.00
2022-12-08T03:25:38.542Z,3.92
2022-12-08T03:28:05.701Z,4.82
2022-12-08T03:30:36.536Z,5.18
2022-12-08T03:33:29.406Z,5.00
2022-12-08T03:35:57.183Z,6.10
2022-12-08T03:38:23.703Z,5.97
2022-12-08T03:41:10.118Z,5.95
2022-12-08T03:43:37.241Z,5.82
2022-12-08T03:46:03.911Z,5.85
2022-12-08T03:48:30.596Z,6.35
2022-12-08T03:50:57.189Z,5.30
2022-12-08T03:53:23.663Z,6.03
2022-12-08T03:55:50.128Z,7.28
2022-12-08T03:58:16.640Z,5.78
2022-12-08T04:00:43.162Z,6.75
2022-12-08T04:03:09.783Z,6.05
2022-12-08T04:05:36.388Z,4.82
2022-12-08T04:08:02.941Z,6.25
2022-12-08T04:10:29.444Z,7.57
2022-12-08T04:12:56.713Z,6.03
2022-12-08T04:15:23.135Z,5.00
2022-12-08T04:17:49.566Z,7.53
2022-12-08T04:20:16.112Z,6.55
2022-12-08T04:22:42.664Z,5.80
2022-12-08T04:25:09.345Z,7.40
2022-12-08T04:27:35.757Z,6.90
2022-12-08T04:30:02.655Z,8.18
2022-12-08T04:32:29.246Z,8.43
2022-12-08T04:34:55.786Z,7.93
2022-12-08T04:37:22.345Z,7.95
2022-12-08T04:39:48.880Z,6.30
2022-12-08T04:42:15.320Z,8.98
2022-12-08T04:44:42.038Z,7.60
2022-12-08T04:47:08.505Z,8.35
2022-12-08T04:49:35.096Z,10.27
2022-12-08T04:52:01.544Z,9.20
2022-12-08T04:54:28.324Z,10.52
2022-12-08T04:56:54.854Z,10.18
2022-12-08T04:59:21.372Z,10.73
2022-12-08T05:01:48.109Z,8.60
2022-12-08T05:04:14.646Z,11.68
2022-12-08T05:06:41.078Z,10.00
2022-12-08T05:09:07.792Z,9.38
2022-12-08T05:11:34.217Z,11.00
2022-12-08T05:14:00.714Z,10.05
2022-12-08T05:16:27.370Z,12.95
2022-12-08T05:18:53.810Z,9.55
2022-12-08T05:21:20.253Z,9.30
2022-12-08T05:23:46.918Z,8.85
2022-12-08T05:26:13.469Z,10.65
2022-12-08T05:28:42.011Z,9.32
2022-12-08T05:31:09.794Z,9.25
2022-12-08T05:33:36.355Z,10.35
2022-12-08T05:36:02.932Z,9.07
2022-12-08T05:38:29.545Z,10.32
2022-12-08T05:40:56.232Z,8.70
2022-12-08T05:43:22.779Z,9.85
2022-12-08T05:45:49.458Z,10.40
2022-12-08T05:48:16.561Z,10.00
2022-12-08T05:50:47.076Z,9.95
2022-12-08T05:53:13.953Z,10.15
2022-12-08T05:55:40.452Z,11.60
2022-12-08T05:58:08.117Z,11.48
2022-12-08T06:00:34.994Z,11.02
2022-12-08T06:03:01.673Z,11.05
2022-12-08T06:05:28.296Z,11.05
2022-12-08T06:07:54.892Z,11.52
2022-12-08T06:10:21.407Z,11.32
2022-12-08T06:12:47.852Z,11.70
2022-12-08T06:15:14.409Z,12.25
2022-12-08T06:17:40.852Z,12.18
2022-12-08T06:20:07.804Z,13.68
2022-12-08T06:22:34.602Z,13.15
2022-12-08T06:25:01.917Z,14.15
2022-12-08T06:27:30.570Z,13.35
2022-12-08T06:29:57.558Z,12.70
2022-12-08T06:32:27.563Z,13.10
2022-12-08T06:34:54.270Z,11.63
2022-12-08T06:37:20.791Z,11.68
2022-12-08T06:39:47.234Z,11.30
2022-12-08T06:42:32.195Z,13.45
2022-12-08T06:44:59.183Z,12.57
2022-12-08T06:47:26.487Z,10.73
2022-12-08T06:49:53.313Z,10.68
2022-12-08T06:52:19.783Z,10.80
2022-12-08T06:54:46.262Z,10.93
2022-12-08T06:57:12.749Z,9.68
2022-12-08T06:59:39.711Z,10.57
2022-12-08T07:02:06.371Z,10.85
2022-12-08T07:04:32.849Z,11.85
2022-12-08T07:06:59.398Z,9.60
2022-12-08T07:09:25.927Z,9.77
2022-12-08T07:11:52.359Z,8.98
2022-12-08T07:14:20.338Z,10.55
2022-12-08T07:16:47.185Z,9.38
2022-12-08T07:19:13.656Z,7.50
2022-12-08T07:21:40.241Z,9.25
2022-12-08T07:24:06.945Z,12.45
2022-12-08T07:26:33.389Z,10.07
2022-12-08T07:28:59.964Z,9.27
2022-12-08T07:31:26.883Z,11.82
2022-12-08T07:33:53.586Z,9.68
2022-12-08T07:36:20.171Z,10.65
2022-12-08T07:38:46.754Z,8.90
2022-12-08T07:41:18.260Z,9.88
2022-12-08T07:43:45.661Z,8.90
2022-12-08T07:46:16.196Z,10.13
2022-12-08T07:48:43.039Z,8.10
2022-12-08T07:51:10.925Z,8.82
2022-12-08T07:53:42.302Z,9.75
2022-12-08T07:56:09.873Z,9.68
2022-12-08T07:58:36.669Z,9.52
2022-12-08T08:01:03.546Z,10.30
2022-12-08T08:03:30.076Z,7.85
2022-12-08T08:06:02.266Z,7.80
2022-12-08T08:08:28.831Z,9.88
2022-12-08T08:10:55.279Z,9.00
2022-12-08T08:13:21.759Z,10.38
2022-12-08T08:15:48.361Z,10.20
2022-12-08T08:18:15.050Z,10.13
2022-12-08T08:20:41.583Z,10.50
2022-12-08T08:23:08.070Z,10.00
2022-12-08T08:25:34.550Z,10.75
2022-12-08T08:28:01.008Z,8.55
2022-12-08T08:30:27.450Z,9.65
2022-12-08T08:32:54.223Z,8.05
2022-12-08T08:35:20.663Z,9.32
2022-12-08T08:37:49.440Z,10.63
2022-12-08T08:40:16.660Z,11.32
2022-12-08T08:42:43.705Z,10.07
2022-12-08T08:45:10.366Z,10.68
2022-12-08T08:47:37.466Z,10.55
2022-12-08T08:50:04.634Z,11.00
2022-12-08T08:52:31.333Z,13.55
2022-12-08T08:54:57.944Z,11.35
2022-12-08T08:57:25.996Z,10.65
2022-12-08T08:59:53.180Z,11.27
2022-12-08T09:02:20.200Z,11.38
2022-12-08T09:04:47.035Z,10.07
2022-12-08T09:07:14.029Z,13.10
2022-12-08T09:09:40.548Z,11.15
2022-12-08T09:12:07.288Z,11.05
2022-12-08T09:14:33.740Z,8.50
2022-12-08T09:17:01.587Z,10.20
2022-12-08T09:19:28.215Z,10.45
2022-12-08T09:21:54.675Z,10.23
2022-12-08T09:24:23.165Z,9.90
2022-12-08T09:26:49.719Z,10.75
2022-12-08T09:29:17.787Z,9.07
2022-12-08T09:31:44.676Z,8.13
2022-12-08T09:34:12.108Z,8.95
2022-12-08T09:36:40.110Z,12.05
2022-12-08T09:39:06.763Z,11.25
2022-12-08T09:41:42.026Z,11.00
2022-12-08T09:44:21.486Z,11.82
2022-12-08T09:46:49.970Z,11.23
2022-12-08T09:49:21.033Z,11.93
2022-12-08T09:51:48.627Z,10.77
2022-12-08T09:54:24.004Z,10.93
2022-12-08T09:56:52.403Z,9.38
2022-12-08T09:59:30.873Z,11.25
2022-12-08T10:01:57.566Z,11.10
2022-12-08T10:04:26.290Z,10.90
2022-12-08T10:06:58.827Z,9.10
2022-12-08T10:09:41.372Z,10.68
2022-12-08T10:12:10.605Z,11.50
2022-12-08T10:14:45.468Z,13.20
2022-12-08T10:17:26.133Z,11.35
2022-12-08T10:20:00.283Z,13.02
2022-12-08T10:22:29.359Z,11.90
2022-12-08T10:24:59.129Z,11.68
2022-12-08T10:27:26.393Z,12.63
2022-12-08T10:29:53.363Z,13.70
2022-12-08T10:32:21.567Z,13.88
2022-12-08T10:35:06.315Z,12.85
2022-12-08T10:37:33.118Z,17.77
2022-12-08T10:40:06.716Z,15.27
2022-12-08T10:42:35.193Z,17.52
2022-12-08T10:45:18.087Z,17.02
2022-12-08T10:47:55.194Z,14.33
2022-12-08T10:50:23.507Z,16.10
2022-12-08T10:53:22.349Z,17.30
2022-12-08T10:55:51.805Z,24.50
2022-12-08T10:58:24.888Z,19.38
2022-12-08T11:00:53.865Z,23.52
2022-12-08T11:03:30.745Z,18.95
2022-12-08T11:05:58.730Z,17.20
2022-12-08T11:08:26.133Z,16.38
2022-12-08T11:10:52.813Z,15.95
2022-12-08T11:13:23.962Z,16.83
2022-12-08T11:15:51.134Z,15.07
2022-12-08T11:18:26.880Z,13.63
2022-12-08T11:21:07.526Z,14.70
2022-12-08T11:23:35.639Z,15.45
2022-12-08T11:26:15.739Z,17.02
2022-12-08T11:28:42.675Z,14.32
2022-12-08T11:31:17.602Z,16.77
2022-12-08T11:33:45.064Z,15.30
2022-12-08T11:36:12.664Z,15.93
2022-12-08T11:38:44.246Z,17.27
2022-12-08T11:41:22.725Z,14.73
2022-12-08T11:43:55.022Z,16.58
2022-12-08T11:46:23.776Z,16.38
2022-12-08T11:48:53.411Z,16.92
2022-12-08T11:51:28.114Z,18.58
2022-12-08T11:54:07.041Z,16.60
2022-12-08T11:56:34.784Z,16.23
2022-12-08T11:59:02.893Z,16.05
2022-12-08T12:01:29.501Z,16.65
2022-12-08T12:03:59.250Z,15.23
2022-12-08T12:06:54.632Z,15.20
2022-12-08T12:09:37.277Z,14.00
2022-12-08T12:12:22.513Z,14.68
2022-12-08T12:15:07.693Z,15.48
2022-12-08T12:17:40.297Z,18.17
2022-12-08T12:20:14.092Z,17.67
2022-12-08T12:22:41.920Z,19.38
2022-12-08T12:25:16.498Z,18.38
2022-12-08T12:27:44.108Z,16.63
2022-12-08T12:30:24.992Z,21.08
2022-12-08T12:32:54.074Z,18.45
2022-12-08T12:35:40.757Z,20.83
2022-12-08T12:38:29.026Z,21.48
2022-12-08T12:41:01.199Z,22.98
2022-12-08T12:43:29.639Z,24.45
2022-12-08T12:46:19.564Z,22.80
2022-12-08T12:48:46.127Z,22.60
2022-12-08T12:51:31.462Z,22.33
2022-12-08T12:54:18.006Z,21.08
2022-12-08T12:56:48.795Z,21.52
2022-12-08T12:59:30.972Z,21.70
2022-12-08T13:01:57.647Z,20.67
2022-12-08T13:04:29.358Z,23.90
2022-12-08T13:06:56.043Z,25.23
2022-12-08T13:09:24.308Z,24.67
2022-12-08T13:11:52.556Z,21.75
2022-12-08T13:14:26.827Z,21.83
2022-12-08T13:16:55.548Z,19.75
2022-12-08T13:19:22.492Z,20.38
2022-12-08T13:21:49.096Z,22.30
2022-12-08T13:24:24.592Z,23.20
2022-12-08T13:27:13.623Z,22.92
2022-12-08T13:29:40.330Z,21.42
2022-12-08T13:32:09.836Z,22.00
2022-12-08T13:34:42.228Z,22.92
2022-12-08T13:37:17.533Z,22.13
2022-12-08T13:39:49.287Z,21.50
2022-12-08T13:42:19.605Z,21.70
2022-12-08T13:45:19.667Z,23.67
2022-12-08T13:47:41.454Z,23.15
2022-12-08T13:54:48.532Z,22.42
2022-12-08T13:59:07.367Z,21.02
2022-12-08T14:01:38.934Z,22.17
2022-12-08T14:04:34.211Z,23.13
2022-12-08T14:06:56.953Z,22.67
2022-12-08T14:09:27.213Z,21.85
2022-12-08T14:11:58.426Z,22.33
2022-12-08T14:15:00.687Z,23.13
2022-12-08T14:17:19.102Z,23.33
2022-12-08T14:19:56.452Z,25.30
2022-12-08T14:22:23.187Z,21.55
2022-12-08T14:24:51.229Z,23.75
2022-12-08T14:27:22.605Z,23.85
2022-12-08T14:29:54.120Z,23.42
2022-12-08T14:32:20.769Z,24.05
2022-12-08T14:35:06.521Z,24.58
2022-12-08T14:37:38.102Z,25.27
2022-12-08T14:40:06.851Z,27.75
2022-12-08T14:42:42.213Z,25.33
2022-12-08T14:45:10.906Z,25.52
2022-12-08T14:47:37.403Z,24.63
2022-12-08T14:50:05.591Z,25.45
2022-12-08T14:52:32.270Z,27.00
2022-12-08T14:54:58.964Z,27.48
2022-12-08T14:57:30.506Z,26.27
2022-12-08T14:59:57.109Z,24.38
2022-12-08T15:02:26.484Z,26.02
2022-12-08T15:04:59.130Z,24.92
2022-12-08T15:07:30.070Z,25.98
2022-12-08T15:10:14.927Z,26.45
2022-12-08T15:12:55.957Z,25.60
2022-12-08T15:15:23.046Z,26.05
2022-12-08T15:17:51.624Z,24.00
2022-12-08T15:20:36.656Z,23.95
2022-12-08T15:23:03.870Z,25.23
2022-12-08T15:25:30.416Z,25.48
2022-12-08T15:27:57.998Z,27.02
2022-12-08T15:30:28.689Z,23.60
2022-12-08T15:32:56.369Z,24.33
2022-12-08T15:35:23.317Z,24.92
2022-12-08T15:37:49.911Z,24.52
2022-12-08T15:40:18.259Z,24.85
2022-12-08T15:42:45.221Z,25.63
2022-12-08T15:45:13.793Z,25.05
2022-12-08T15:47:40.983Z,24.90
2022-12-08T15:50:08.042Z,25.42
2022-12-08T15:52:36.951Z,25.40
2022-12-08T15:55:03.616Z,27.95
2022-12-08T16:09:12.474Z,23.33
2022-12-08T16:12:07.643Z,26.30
2022-12-08T16:15:39.147Z,24.45
2022-12-08T16:17:21.219Z,25.00
2022-12-08T16:19:48.939Z,26.35
2022-12-08T16:25:18.178Z,27.17
2022-12-08T16:28:12.448Z,24.65
2022-12-08T16:30:32.329Z,22.02
2022-12-08T16:32:58.900Z,22.65
2022-12-08T16:35:25.327Z,21.63
2022-12-08T16:37:51.807Z,21.20
2022-12-08T16:40:18.400Z,21.70
2022-12-08T16:42:46.436Z,21.13
2022-12-08T16:45:17.916Z,20.75
2022-12-08T16:47:45.528Z,21.48
2022-12-08T16:50:14.543Z,21.58
2022-12-08T16:52:41.155Z,23.25
2022-12-08T16:55:18.207Z,22.48
2022-12-08T16:57:45.417Z,21.77
2022-12-08T17:00:13.812Z,22.48
2022-12-08T17:02:40.406Z,23.10
2022-12-08T17:05:07.063Z,20.98
2022-12-08T17:07:34.388Z,23.80
2022-12-08T17:10:03.598Z,23.38
2022-12-08T17:12:30.434Z,22.73
2022-12-08T17:14:56.951Z,25.15
2022-12-08T17:17:23.632Z,23.95
2022-12-08T17:19:50.187Z,25.92
2022-12-08T17:22:16.780Z,26.90
2022-12-08T17:24:43.278Z,27.10
2022-12-08T17:27:09.751Z,26.05
2022-12-08T17:29:36.806Z,27.35
2022-12-08T17:32:03.572Z,27.08
2022-12-08T17:34:30.728Z,27.17
2022-12-08T17:36:57.211Z,26.42
2022-12-08T17:39:23.646Z,25.60
2022-12-08T17:41:50.210Z,24.23
2022-12-08T17:44:17.744Z,26.15
2022-12-08T17:46:50.523Z,27.13
2022-12-08T17:49:20.337Z,25.13
2022-12-08T17:51:51.031Z,26.25
2022-12-08T17:54:17.887Z,26.63
2022-12-08T17:56:44.705Z,27.38
2022-12-08T17:59:11.890Z,26.02
2022-12-08T18:01:38.899Z,27.58
2022-12-08T18:04:07.317Z,28.15
2022-12-08T18:06:34.417Z,25.63
2022-12-08T18:09:01.331Z,28.00
2022-12-08T18:11:28.362Z,26.90
2022-12-08T18:13:55.391Z,27.73
2022-12-08T18:16:23.838Z,27.75
2022-12-08T18:18:51.101Z,29.08
2022-12-08T18:21:23.404Z,28.05
2022-12-08T18:23:50.687Z,28.88
2022-12-08T18:26:17.300Z,26.17
2022-12-08T18:28:44.121Z,28.33
2022-12-08T18:31:14.927Z,25.40
2022-12-08T18:33:42.492Z,23.50
2022-12-08T18:36:09.898Z,26.67
2022-12-08T18:38:37.254Z,23.88
2022-12-08T18:41:04.646Z,25.38
2022-12-08T18:43:31.210Z,25.00
2022-12-08T18:46:04.782Z,24.50
2022-12-08T18:48:31.347Z,25.15
2022-12-08T18:50:57.946Z,23.30
2022-12-08T18:53:24.457Z,24.48
2022-12-08T18:55:51.085Z,23.25
2022-12-08T18:58:17.838Z,23.08
2022-12-08T19:00:44.332Z,22.08
2022-12-08T19:03:11.149Z,23.60
2022-12-08T19:05:37.839Z,23.25
2022-12-08T19:08:04.532Z,21.75
2022-12-08T19:10:32.252Z,23.40
2022-12-08T19:12:58.724Z,23.30
2022-12-08T19:15:25.313Z,23.85
2022-12-08T19:17:51.848Z,24.20
2022-12-08T19:20:18.382Z,23.00
2022-12-08T19:22:44.981Z,23.92
2022-12-08T19:25:11.427Z,24.90
2022-12-08T19:27:38.013Z,23.02
2022-12-08T19:30:05.192Z,24.45
2022-12-08T19:32:32.136Z,23.63
2022-12-08T19:34:58.694Z,26.20
2022-12-08T19:37:25.211Z,24.25
2022-12-08T19:40:10.327Z,25.75
2022-12-08T19:42:55.647Z,26.25
2022-12-08T19:45:22.417Z,24.77
2022-12-08T19:47:49.204Z,26.60
2022-12-08T19:50:34.996Z,27.50
2022-12-08T19:53:02.151Z,28.02
2022-12-08T19:55:29.018Z,28.35
2022-12-08T19:57:57.048Z,27.67
2022-12-08T20:00:23.578Z,28.27
2022-12-08T20:02:50.180Z,27.05
2022-12-08T20:05:16.932Z,27.70
2022-12-08T20:07:43.656Z,27.70
2022-12-08T20:10:17.885Z,30.83
2022-12-08T20:12:44.520Z,26.75
2022-12-08T20:15:11.186Z,29.27
2022-12-08T20:17:38.514Z,27.30
2022-12-08T20:20:07.615Z,28.90
2022-12-08T20:22:34.597Z,27.42
2022-12-08T20:25:01.372Z,28.73
2022-12-08T20:27:29.163Z,26.88
2022-12-08T20:29:55.681Z,30.30
2022-12-08T20:32:22.173Z,27.25
2022-12-08T20:34:49.000Z,27.25
2022-12-08T20:37:15.541Z,28.52
2022-12-08T20:39:42.012Z,24.42
2022-12-08T20:42:11.185Z,27.35
2022-12-08T20:44:43.216Z,28.13
2022-12-08T20:47:10.164Z,27.70
2022-12-08T20:49:36.781Z,29.17
2022-12-08T20:52:03.558Z,28.65
2022-12-08T20:54:30.119Z,26.58
2022-12-08T20:56:56.681Z,27.02
2022-12-08T20:59:23.320Z,29.85
2022-12-08T21:01:50.138Z,29.23
2022-12-08T21:04:17.007Z,26.35
2022-12-08T21:06:43.734Z,27.45
2022-12-08T21:09:10.403Z,29.38
2022-12-08T21:11:37.168Z,29.20
2022-12-08T21:14:04.517Z,33.60
2022-12-08T21:16:31.141Z,32.15
2022-12-08T21:18:57.946Z,34.47
2022-12-08T21:21:24.488Z,35.53
2022-12-08T21:23:51.031Z,32.42
2022-12-08T21:26:19.592Z,36.47
2022-12-08T21:28:46.664Z,34.33
2022-12-08T21:31:15.029Z,35.03
2022-12-08T21:33:41.818Z,34.95
2022-12-08T21:36:10.758Z,35.63
2022-12-08T21:38:38.523Z,32.78
2022-12-08T21:41:06.082Z,36.35
2022-12-08T21:43:33.240Z,33.65
2022-12-08T21:45:59.834Z,33.70
2022-12-08T21:48:26.773Z,33.03
2022-12-08T21:50:54.078Z,32.17
2022-12-08T21:53:21.691Z,34.83
2022-12-08T21:55:48.436Z,32.92
2022-12-08T21:58:15.030Z,32.53
2022-12-08T22:00:41.798Z,34.30
2022-12-08T22:03:12.508Z,36.33
2022-12-08T22:05:39.169Z,33.72
2022-12-08T22:08:05.735Z,32.63
2022-12-08T22:10:32.255Z,34.65
2022-12-08T22:12:58.864Z,32.95
2022-12-08T22:15:25.533Z,35.25
2022-12-08T22:17:52.036Z,35.08
2022-12-08T22:20:18.725Z,38.40
2022-12-08T22:22:46.030Z,38.67
2022-12-08T22:25:13.148Z,37.17
2022-12-08T22:27:40.627Z,35.85
2022-12-08T22:30:07.683Z,36.53
2022-12-08T22:32:34.578Z,33.20
2022-12-08T22:35:01.415Z,34.63
2022-12-08T22:37:28.517Z,30.73
2022-12-08T22:39:55.222Z,33.53
2022-12-08T22:42:22.010Z,34.40
2022-12-08T22:44:48.526Z,35.95
2022-12-08T22:47:15.113Z,35.20
2022-12-08T22:49:41.595Z,36.60
2022-12-08T22:52:08.285Z,32.45
2022-12-08T22:54:34.821Z,35.67
2022-12-08T22:57:01.258Z,37.67
2022-12-08T22:59:28.447Z,36.05
2022-12-08T23:01:55.004Z,35.13
2022-12-08T23:04:21.649Z,35.90
2022-12-08T23:06:48.282Z,36.22
2022-12-08T23:09:15.244Z,36.03
2022-12-08T23:11:41.911Z,35.13
2022-12-08T23:14:08.386Z,37.45
2022-12-08T23:16:34.977Z,36.42
2022-12-08T23:19:01.543Z,35.78
2022-12-08T23:21:28.101Z,35.05
2022-12-08T23:23:54.766Z,32.75
2022-12-08T23:26:22.937Z,36.58
2022-12-08T23:31:33.673Z,33.80
2022-12-08T23:34:01.564Z,34.45
2022-12-08T23:36:28.277Z,32.38
2022-12-08T23:38:54.942Z,32.80
2022-12-08T23:41:21.545Z,34.08
2022-12-08T23:43:49.561Z,32.13
2022-12-08T23:46:17.197Z,31.95
2022-12-08T23:48:44.231Z,34.58
2022-12-08T23:51:11.637Z,36.30
2022-12-08T23:53:38.493Z,36.88
2022-12-08T23:56:06.228Z,36.40
2022-12-08T23:58:33.355Z,36.90
